Time;durP1;ratioP1;P1;durP2;ratioP2;P2;SDS_P1;SDS_P2;PMS_P1;PMS_P2;Temp;Humidity;BMP_temperature;BMP_pressure;BME280_temperature;BME280_humidity;BME280_pressure;Samples;Min_cycle;Max_cycle;Signal;HPM_P1;HPM_P2
2021/01/14 00:01:40;;;;;;;3.17;1.93;;;1.40;99.90;;;;;;6211203;28;20291;-79
2021/01/14 00:04:42;;;;;;;2.47;2.10;;;1.30;99.90;;;;;;6211649;28;20215;-79
2021/01/14 00:07:45;;;;;;;3.73;2.40;;;1.40;99.90;;;;;;6213982;28;20522;-79
2021/01/14 00:10:47;;;;;;;3.00;2.50;;;1.40;99.90;;;;;;6212418;28;20601;-79
2021/01/14 00:13:50;;;;;;;3.17;2.27;;;1.40;99.90;;;;;;6212911;28;20220;-79
2021/01/14 00:16:52;;;;;;;3.83;2.50;;;1.40;99.90;;;;;;6213710;28;20212;-79
2021/01/14 00:19:55;;;;;;;3.50;2.83;;;1.40;99.90;;;;;;6229059;28;20404;-79
2021/01/14 00:22:59;;;;;;;3.27;2.57;;;1.40;99.90;;;;;;6228188;28;20208;-79
2021/01/14 00:26:01;;;;;;;4.80;2.67;;;1.50;99.90;;;;;;6211545;28;20637;-79
2021/01/14 00:29:04;;;;;;;3.97;2.40;;;1.50;99.90;;;;;;6197117;28;20941;-78
2021/01/14 00:32:07;;;;;;;3.93;2.37;;;1.50;99.90;;;;;;6212400;28;20219;-79
2021/01/14 00:35:10;;;;;;;4.60;2.30;;;1.60;99.90;;;;;;6213558;28;20282;-79
2021/01/14 00:38:11;;;;;;;5.30;2.57;;;1.60;99.90;;;;;;6196858;28;20208;-79
2021/01/14 00:41:13;;;;;;;4.17;2.10;;;1.50;99.90;;;;;;6196738;28;20207;-79
2021/01/14 00:44:16;;;;;;;4.23;2.53;;;1.50;99.90;;;;;;6214338;28;20212;-79
2021/01/14 00:47:18;;;;;;;4.67;2.70;;;1.50;99.90;;;;;;6214767;28;20618;-78
2021/01/14 00:50:20;;;;;;;3.63;2.53;;;1.60;99.90;;;;;;6235378;28;20263;-79
2021/01/14 00:53:23;;;;;;;3.70;2.67;;;1.60;99.90;;;;;;6241018;28;20622;-79
2021/01/14 00:56:32;;;;;;;3.63;2.43;;;1.60;99.90;;;;;;6238253;28;20208;-79
2021/01/14 00:59:34;;;;;;;3.97;2.63;;;1.60;99.90;;;;;;6238649;28;20594;-79
2021/01/14 01:02:41;;;;;;;3.63;3.00;;;1.50;99.90;;;;;;6239194;28;20196;-79
2021/01/14 01:05:44;;;;;;;3.60;2.70;;;1.50;99.90;;;;;;6238109;28;20214;-79
2021/01/14 01:08:50;;;;;;;5.57;3.00;;;1.60;99.90;;;;;;6238254;28;20480;-79
2021/01/14 01:11:53;;;;;;;6.30;3.47;;;1.70;99.90;;;;;;6244658;28;20264;-80
2021/01/14 01:14:55;;;;;;;6.37;3.30;;;1.60;99.90;;;;;;6223857;28;20299;-79
2021/01/14 01:17:58;;;;;;;5.87;3.23;;;1.60;99.90;;;;;;6234201;28;20685;-79
2021/01/14 01:21:04;;;;;;;4.47;2.93;;;1.60;99.90;;;;;;6237238;28;20694;-79
2021/01/14 01:24:07;;;;;;;5.17;3.37;;;1.60;99.90;;;;;;6226494;28;20197;-79
2021/01/14 01:27:09;;;;;;;4.40;3.30;;;1.60;99.90;;;;;;6194343;28;20843;-79
2021/01/14 01:30:11;;;;;;;3.90;2.93;;;1.60;99.90;;;;;;6193522;28;20220;-79
2021/01/14 01:33:14;;;;;;;5.43;3.33;;;1.60;99.90;;;;;;6212675;28;20208;-79
2021/01/14 01:36:16;;;;;;;7.40;2.90;;;1.70;99.90;;;;;;6211719;28;20621;-79
2021/01/14 01:39:19;;;;;;;4.37;2.80;;;1.60;99.90;;;;;;6195408;28;20708;-79
2021/01/14 01:42:21;;;;;;;5.83;3.00;;;1.60;99.90;;;;;;6211475;28;20579;-79
2021/01/14 01:45:23;;;;;;;5.80;3.30;;;1.70;99.90;;;;;;6214123;28;20265;-79
2021/01/14 01:48:25;;;;;;;4.80;2.97;;;1.70;99.90;;;;;;6194560;28;20201;-79
2021/01/14 01:51:35;;;;;;;4.03;3.10;;;1.70;99.90;;;;;;6210963;28;20228;-79
2021/01/14 01:54:37;;;;;;;6.63;3.63;;;1.70;99.90;;;;;;6210171;28;20209;-79
2021/01/14 01:57:40;;;;;;;4.03;3.00;;;1.70;99.90;;;;;;6210909;28;20220;-79
2021/01/14 02:00:42;;;;;;;5.67;2.80;;;1.70;99.90;;;;;;6211600;28;20699;-79
2021/01/14 02:03:47;;;;;;;5.37;3.20;;;1.70;99.90;;;;;;6211392;28;20209;-79
2021/01/14 02:07:05;;;;;;;3.63;2.70;;;1.70;99.90;;;;;;6213278;28;20205;-79
2021/01/14 02:10:14;;;;;;;5.27;3.10;;;1.70;99.90;;;;;;6212168;28;20268;-79
2021/01/14 02:13:30;;;;;;;3.90;3.07;;;1.70;99.90;;;;;;6230281;28;20209;-79
2021/01/14 02:16:37;;;;;;;4.80;3.20;;;1.60;99.90;;;;;;6194371;28;20251;-79
2021/01/14 02:19:44;;;;;;;4.00;3.07;;;1.60;99.90;;;;;;6219644;28;20287;-79
2021/01/14 02:23:00;;;;;;;4.33;2.87;;;1.60;99.90;;;;;;6241223;28;20208;-79
2021/01/14 02:26:07;;;;;;;4.03;2.67;;;1.60;99.90;;;;;;6235349;28;20224;-78
2021/01/14 02:29:10;;;;;;;4.73;3.13;;;1.50;99.90;;;;;;6233960;28;20307;-78
2021/01/14 02:32:16;;;;;;;5.00;3.33;;;1.50;99.90;;;;;;6229447;28;20353;-79
2021/01/14 02:35:18;;;;;;;3.53;3.00;;;1.50;99.90;;;;;;6228636;28;20231;-79
2021/01/14 02:38:21;;;;;;;3.60;2.90;;;1.60;99.90;;;;;;6222302;28;20196;-78
2021/01/14 02:41:23;;;;;;;6.23;2.77;;;1.60;99.90;;;;;;6235541;28;20306;-79
2021/01/14 02:44:26;;;;;;;4.03;2.97;;;1.50;99.90;;;;;;6228220;28;20654;-79
2021/01/14 02:50:54;;;;;;;3.77;2.67;;;1.50;99.90;;;;;;6219005;28;20225;-79
2021/01/14 02:53:58;;;;;;;4.67;2.97;;;1.50;99.90;;;;;;6202410;28;20212;-79
2021/01/14 02:57:01;;;;;;;4.87;3.40;;;1.50;99.90;;;;;;6203252;28;20362;-79
2021/01/14 03:00:04;;;;;;;4.77;2.70;;;1.50;99.90;;;;;;6218397;28;20208;-79
2021/01/14 03:03:05;;;;;;;3.83;2.70;;;1.50;99.90;;;;;;6201510;28;20681;-79
2021/01/14 03:06:08;;;;;;;4.63;3.00;;;1.40;99.90;;;;;;6201931;28;20211;-79
2021/01/14 03:09:11;;;;;;;3.63;2.80;;;1.50;99.90;;;;;;6201607;28;20700;-78
2021/01/14 03:12:13;;;;;;;5.87;2.90;;;1.40;99.90;;;;;;6209891;28;20670;-79
2021/01/14 03:15:15;;;;;;;3.07;2.43;;;1.30;99.90;;;;;;6212555;28;20255;-79
2021/01/14 03:18:18;;;;;;;4.50;2.97;;;1.30;99.90;;;;;;6211037;28;20232;-79
2021/01/14 03:21:24;;;;;;;5.07;3.03;;;1.30;99.90;;;;;;6212957;28;20309;-78
2021/01/14 03:24:27;;;;;;;7.33;2.90;;;1.30;99.90;;;;;;6234557;28;20596;-78
2021/01/14 03:27:28;;;;;;;4.93;2.97;;;1.40;99.90;;;;;;6235109;28;20192;-79
2021/01/14 03:30:31;;;;;;;6.53;2.60;;;1.40;99.90;;;;;;6235525;28;20228;-79
2021/01/14 03:33:33;;;;;;;3.87;2.83;;;1.40;99.90;;;;;;6236060;28;20200;-79
2021/01/14 03:36:56;;;;;;;3.17;2.70;;;1.40;99.90;;;;;;6234631;28;20211;-79
2021/01/14 03:39:59;;;;;;;4.10;3.13;;;1.40;99.90;;;;;;6238435;28;20230;-79
2021/01/14 03:43:02;;;;;;;5.77;2.93;;;1.40;99.90;;;;;;6237540;28;20215;-79
2021/01/14 03:46:14;;;;;;;3.57;2.90;;;1.40;99.90;;;;;;6237829;28;20211;-78
2021/01/14 03:49:17;;;;;;;4.37;3.50;;;1.40;99.90;;;;;;6222550;28;20266;-79
2021/01/14 03:52:21;;;;;;;7.63;4.10;;;1.40;99.90;;;;;;6212402;28;20196;-79
2021/01/14 03:55:25;;;;;;;5.33;3.30;;;1.40;99.90;;;;;;6202508;28;20298;-78
2021/01/14 03:58:27;;;;;;;5.03;4.27;;;1.40;99.90;;;;;;6204442;28;20243;-78
2021/01/14 04:01:29;;;;;;;8.63;5.27;;;1.30;99.90;;;;;;6204119;28;20212;-78
2021/01/14 04:04:38;;;;;;;7.93;5.30;;;1.20;99.90;;;;;;6202949;28;20255;-77
2021/01/14 04:07:41;;;;;;;7.73;5.53;;;1.00;99.90;;;;;;6218994;28;20255;-77
2021/01/14 04:10:43;;;;;;;7.10;4.53;;;0.90;99.90;;;;;;6202929;28;20595;-78
2021/01/14 04:13:45;;;;;;;6.43;4.80;;;0.80;99.90;;;;;;6185178;28;20200;-77
2021/01/14 04:16:54;;;;;;;9.37;4.67;;;0.70;99.90;;;;;;6200418;28;20282;-78
2021/01/14 04:19:56;;;;;;;4.60;2.87;;;0.70;99.90;;;;;;6218754;28;20664;-77
2021/01/14 04:22:58;;;;;;;2.83;1.63;;;0.60;99.90;;;;;;6225863;28;20249;-77
2021/01/14 04:26:00;;;;;;;4.13;1.10;;;0.50;99.90;;;;;;6241934;28;20257;-78
2021/01/14 04:29:04;;;;;;;1.07;0.87;;;0.50;99.90;;;;;;6225530;28;20197;-77
2021/01/14 04:32:06;;;;;;;1.70;1.00;;;0.50;99.90;;;;;;6225826;28;20271;-78
2021/01/14 04:35:09;;;;;;;0.97;0.87;;;0.50;99.90;;;;;;6225964;28;20621;-77
2021/01/14 04:38:12;;;;;;;1.50;1.03;;;0.50;99.90;;;;;;6209127;28;20457;-78
2021/01/14 04:41:20;;;;;;;1.73;1.10;;;0.50;99.90;;;;;;6212056;28;20295;-78
2021/01/14 04:44:26;;;;;;;1.30;1.20;;;0.60;99.90;;;;;;6229789;28;20742;-77
2021/01/14 04:47:32;;;;;;;2.47;1.20;;;0.60;99.90;;;;;;6230783;28;20212;-77
2021/01/14 04:50:35;;;;;;;3.50;1.43;;;0.60;99.90;;;;;;6222275;28;20644;-77
2021/01/14 04:53:40;;;;;;;1.67;1.37;;;0.60;99.90;;;;;;6206501;28;20374;-77
2021/01/14 04:56:47;;;;;;;3.73;2.00;;;0.60;99.90;;;;;;6205482;28;20786;-77
2021/01/14 04:59:53;;;;;;;2.83;2.10;;;0.60;99.90;;;;;;6205338;28;20747;-77
2021/01/14 05:03:04;;;;;;;2.43;1.80;;;0.50;99.90;;;;;;6207680;28;20200;-77
2021/01/14 05:06:09;;;;;;;1.60;1.50;;;0.50;99.90;;;;;;6210667;28;20268;-78
2021/01/14 05:09:17;;;;;;;2.23;1.53;;;0.40;99.90;;;;;;6205674;28;20564;-78
2021/01/14 05:12:20;;;;;;;2.87;1.47;;;0.30;99.90;;;;;;6205549;28;20196;-78
2021/01/14 05:15:25;;;;;;;5.80;3.00;;;0.20;99.90;;;;;;6220906;28;20312;-77
2021/01/14 05:18:27;;;;;;;2.07;1.60;;;0.10;99.90;;;;;;6205099;28;20300;-77
2021/01/14 05:21:33;;;;;;;3.77;2.70;;;0.00;99.90;;;;;;6205673;28;20302;-77
2021/01/14 05:24:36;;;;;;;2.70;1.30;;;-0.10;99.90;;;;;;6226650;28;20243;-77
2021/01/14 05:27:38;;;;;;;1.87;1.20;;;-0.10;99.90;;;;;;6230349;28;20208;-77
2021/01/14 05:30:41;;;;;;;5.77;1.73;;;-0.10;99.90;;;;;;6229319;28;20314;-78
2021/01/14 05:33:56;;;;;;;2.00;0.67;;;-0.10;99.90;;;;;;6230813;28;20208;-77
2021/01/14 05:37:03;;;;;;;4.27;0.70;;;0.00;99.90;;;;;;6229545;28;20228;-77
2021/01/14 05:40:06;;;;;;;1.80;0.93;;;-0.10;99.90;;;;;;6228932;28;20196;-77
2021/01/14 05:43:08;;;;;;;2.57;0.60;;;-0.10;99.90;;;;;;6228171;28;20538;-77
2021/01/14 05:46:16;;;;;;;0.93;0.60;;;-0.10;99.90;;;;;;6229174;28;20203;-77
2021/01/14 05:49:17;;;;;;;0.97;0.50;;;-0.10;99.90;;;;;;6227460;28;20496;-77
2021/01/14 05:52:23;;;;;;;0.80;0.60;;;-0.10;99.90;;;;;;6227907;28;20215;-76
2021/01/14 05:55:30;;;;;;;1.10;0.70;;;-0.20;99.90;;;;;;6228211;28;20870;-77
2021/01/14 05:58:36;;;;;;;0.90;0.43;;;-0.20;99.90;;;;;;6227692;28;20685;-77
2021/01/14 06:01:53;;;;;;;3.90;0.73;;;-0.20;99.90;;;;;;6232423;28;20291;-77
2021/01/14 06:04:55;;;;;;;0.93;0.37;;;-0.20;99.90;;;;;;6244600;28;20250;-78
2021/01/14 06:08:01;;;;;;;1.03;0.40;;;-0.20;99.90;;;;;;6227029;28;20207;-78
2021/01/14 06:11:20;;;;;;;1.07;0.90;;;-0.30;99.90;;;;;;6228034;28;20335;-78
2021/01/14 06:14:30;;;;;;;5.30;3.10;;;-0.30;99.90;;;;;;6226755;28;20857;-77
2021/01/14 06:17:35;;;;;;;1.20;0.70;;;-0.40;99.90;;;;;;6226981;28;20207;-77
2021/01/14 06:20:51;;;;;;;1.20;0.50;;;-0.40;99.90;;;;;;6227472;28;20641;-78
2021/01/14 06:23:53;;;;;;;0.70;0.60;;;-0.40;99.90;;;;;;6222194;28;20686;-78
2021/01/14 06:27:09;;;;;;;0.83;0.50;;;-0.40;99.90;;;;;;6203164;28;20749;-78
2021/01/14 06:30:13;;;;;;;1.17;0.60;;;-0.40;99.90;;;;;;6202770;28;20267;-79
2021/01/14 06:33:16;;;;;;;1.03;0.50;;;-0.30;99.90;;;;;;6219189;28;20295;-77
2021/01/14 06:36:20;;;;;;;1.10;0.53;;;-0.20;99.90;;;;;;6202065;28;20212;-77
2021/01/14 06:39:32;;;;;;;0.67;0.33;;;-0.20;99.90;;;;;;6202392;28;20745;-77
2021/01/14 06:42:37;;;;;;;1.30;0.53;;;-0.20;99.90;;;;;;6201940;28;20237;-77
2021/01/14 06:45:51;;;;;;;1.47;0.60;;;-0.10;99.90;;;;;;6202163;28;20231;-78
2021/01/14 06:49:02;;;;;;;2.27;0.40;;;-0.10;99.90;;;;;;6212183;28;20208;-77
2021/01/14 06:52:09;;;;;;;0.40;0.40;;;-0.10;99.90;;;;;;6245292;28;20242;-78
2021/01/14 06:55:14;;;;;;;2.30;0.50;;;0.00;99.90;;;;;;6227000;28;20249;-78
2021/01/14 06:58:17;;;;;;;3.93;0.50;;;0.00;99.90;;;;;;6224620;28;20230;-78
2021/01/14 07:01:21;;;;;;;2.00;0.50;;;0.00;99.90;;;;;;6226074;28;20196;-78
2021/01/14 07:04:42;;;;;;;0.40;0.40;;;0.00;99.90;;;;;;6225559;28;20667;-77
2021/01/14 07:07:48;;;;;;;1.07;0.33;;;0.00;99.90;;;;;;6225645;28;20216;-77
2021/01/14 07:11:04;;;;;;;1.13;0.40;;;0.10;99.90;;;;;;6225601;28;20393;-77
2021/01/14 07:14:13;;;;;;;0.90;0.50;;;0.00;99.90;;;;;;6226066;28;20302;-77
2021/01/14 07:17:30;;;;;;;0.70;0.37;;;0.10;99.90;;;;;;6229041;28;20207;-77
2021/01/14 07:20:32;;;;;;;1.77;0.50;;;0.10;99.90;;;;;;6203310;28;20300;-77
2021/01/14 07:23:38;;;;;;;1.90;0.40;;;0.10;99.90;;;;;;6201730;28;20732;-78
2021/01/14 07:26:43;;;;;;;2.17;0.63;;;0.10;99.90;;;;;;6202129;28;20224;-78
2021/01/14 07:29:47;;;;;;;1.57;0.40;;;0.20;99.90;;;;;;6201692;28;20224;-77
2021/01/14 07:33:04;;;;;;;1.43;0.50;;;0.20;99.90;;;;;;6200532;28;20234;-77
2021/01/14 07:36:17;;;;;;;1.43;0.80;;;0.20;99.90;;;;;;6201624;28;20473;-77
2021/01/14 07:39:52;;;;;;;7.23;0.70;;;0.30;99.90;;;;;;6200787;28;20208;-77
2021/01/14 07:42:55;;;;;;;0.73;0.30;;;0.30;99.90;;;;;;6201546;28;20216;-77
2021/01/14 07:46:27;;;;;;;2.10;0.53;;;0.30;99.90;;;;;;6200724;28;20204;-77
2021/01/14 07:49:29;;;;;;;0.77;0.50;;;0.40;99.90;;;;;;6183402;28;20223;-77
2021/01/14 07:52:36;;;;;;;1.97;0.50;;;0.40;99.90;;;;;;6200934;28;20208;-77
2021/01/14 07:55:38;;;;;;;5.27;0.87;;;0.40;99.90;;;;;;6202089;28;20290;-77
2021/01/14 07:58:45;;;;;;;1.40;0.70;;;0.40;99.90;;;;;;6184673;28;20808;-79
2021/01/14 08:02:07;;;;;;;2.13;1.20;;;0.40;99.90;;;;;;6201143;28;20219;-78
2021/01/14 08:05:09;;;;;;;2.97;0.90;;;0.40;99.90;;;;;;6184385;28;20211;-77
2021/01/14 08:08:26;;;;;;;1.47;0.83;;;0.40;99.90;;;;;;6184826;28;20203;-77
2021/01/14 08:11:55;;;;;;;4.53;1.17;;;0.40;99.90;;;;;;6184402;28;20283;-77
2021/01/14 08:14:58;;;;;;;1.30;1.00;;;0.40;99.90;;;;;;6201060;28;20200;-78
2021/01/14 08:18:10;;;;;;;1.67;1.10;;;0.40;99.90;;;;;;6205800;28;20204;-78
2021/01/14 08:21:28;;;;;;;1.67;1.37;;;0.40;99.90;;;;;;6206060;28;20346;-77
2021/01/14 08:24:59;;;;;;;4.27;1.07;;;0.40;99.90;;;;;;6215856;28;20258;-77
2021/01/14 08:28:05;;;;;;;1.63;0.90;;;0.30;99.90;;;;;;6056252;28;20326;-77
2021/01/14 08:31:08;;;;;;;2.03;1.20;;;0.30;99.90;;;;;;6230022;28;20243;-78
2021/01/14 08:34:09;;;;;;;4.73;1.33;;;0.30;99.90;;;;;;6246502;28;20294;-77
2021/01/14 08:37:12;;;;;;;1.90;1.30;;;0.20;99.90;;;;;;6230434;28;20211;-78
2021/01/14 08:40:22;;;;;;;3.77;1.40;;;0.20;99.90;;;;;;6231144;28;20203;-78
2021/01/14 08:43:39;;;;;;;2.17;1.40;;;0.20;99.90;;;;;;6231901;28;20219;-77
2021/01/14 08:46:42;;;;;;;6.53;1.50;;;0.20;99.90;;;;;;6231552;28;20322;-78
2021/01/14 08:49:44;;;;;;;3.20;1.13;;;0.30;99.90;;;;;;6215483;28;20225;-77
2021/01/14 08:52:50;;;;;;;1.80;1.30;;;0.40;99.90;;;;;;6207141;28;20255;-77
2021/01/14 08:56:06;;;;;;;1.50;1.30;;;0.40;99.90;;;;;;6196708;28;20291;-77
2021/01/14 08:59:14;;;;;;;2.20;1.20;;;0.50;99.90;;;;;;6222723;28;20296;-78
2021/01/14 09:02:21;;;;;;;2.03;1.10;;;0.50;99.90;;;;;;6188569;28;20628;-77
2021/01/14 09:05:23;;;;;;;2.67;1.30;;;0.50;99.90;;;;;;6204443;28;20641;-77
2021/01/14 09:08:26;;;;;;;0.83;0.73;;;0.50;99.90;;;;;;6204689;28;20590;-77
2021/01/14 09:11:28;;;;;;;3.23;1.23;;;0.50;99.90;;;;;;6203795;28;20260;-77
2021/01/14 09:14:30;;;;;;;1.17;0.87;;;0.50;99.90;;;;;;6204586;28;20574;-77
2021/01/14 09:17:33;;;;;;;1.83;1.10;;;0.50;99.90;;;;;;6204439;28;20662;-77
2021/01/14 09:20:36;;;;;;;4.87;1.20;;;0.50;99.90;;;;;;6228255;28;20236;-77
2021/01/14 09:23:39;;;;;;;1.67;1.10;;;0.50;99.90;;;;;;6221115;28;20208;-77
2021/01/14 09:26:43;;;;;;;2.20;1.30;;;0.60;99.90;;;;;;6205046;28;20761;-78
2021/01/14 09:29:45;;;;;;;2.73;1.07;;;0.60;99.90;;;;;;6191241;28;20579;-78
2021/01/14 09:32:58;;;;;;;3.17;1.30;;;0.60;99.90;;;;;;6206900;28;20209;-78
2021/01/14 09:36:22;;;;;;;2.97;1.70;;;0.60;99.90;;;;;;6190272;28;20343;-77
2021/01/14 09:39:26;;;;;;;2.80;1.40;;;0.50;99.90;;;;;;6205724;28;20224;-77
2021/01/14 09:42:29;;;;;;;2.37;1.63;;;0.60;99.90;;;;;;6207411;28;20203;-78
2021/01/14 09:45:31;;;;;;;3.93;1.77;;;0.70;99.90;;;;;;6191749;28;20247;-78
2021/01/14 09:48:33;;;;;;;5.10;1.70;;;0.90;99.90;;;;;;6207055;28;20201;-78
2021/01/14 09:51:39;;;;;;;5.50;1.73;;;0.90;99.90;;;;;;6207297;28;20303;-78
2021/01/14 09:54:42;;;;;;;3.33;1.83;;;0.80;99.90;;;;;;6208826;28;20282;-78
2021/01/14 09:57:51;;;;;;;2.70;1.40;;;0.90;99.90;;;;;;6208179;28;20213;-78
2021/01/14 10:00:56;;;;;;;1.90;1.20;;;0.90;99.90;;;;;;6206264;28;20243;-78
2021/01/14 10:04:07;;;;;;;2.63;1.50;;;0.90;99.90;;;;;;6205543;28;20250;-78
2021/01/14 10:07:14;;;;;;;2.93;1.33;;;0.90;99.90;;;;;;6205968;28;20284;-78
2021/01/14 10:10:18;;;;;;;2.67;1.50;;;0.90;99.90;;;;;;6206043;28;20728;-78
2021/01/14 10:13:20;;;;;;;2.27;1.37;;;1.00;99.90;;;;;;6206967;28;20550;-78
2021/01/14 10:16:23;;;;;;;2.30;1.60;;;0.90;99.90;;;;;;6205251;28;20205;-78
2021/01/14 10:19:26;;;;;;;1.97;1.40;;;0.80;99.90;;;;;;6209843;28;20303;-78
2021/01/14 10:22:28;;;;;;;4.77;1.40;;;0.80;99.90;;;;;;6213254;28;20239;-78
2021/01/14 10:25:29;;;;;;;3.67;1.20;;;0.90;99.90;;;;;;6226115;28;20604;-78
2021/01/14 10:28:53;;;;;;;5.60;1.40;;;0.90;99.90;;;;;;6210746;28;20211;-78
2021/01/14 10:32:02;;;;;;;3.93;1.30;;;0.90;99.90;;;;;;6226826;28;20236;-78
2021/01/14 10:35:04;;;;;;;3.40;1.20;;;0.90;99.90;;;;;;6227454;28;20413;-77
2021/01/14 10:38:16;;;;;;;3.43;1.30;;;0.80;99.90;;;;;;6210971;28;20291;-77
2021/01/14 10:41:22;;;;;;;1.27;1.00;;;0.70;99.90;;;;;;6225644;28;20207;-78
2021/01/14 10:44:25;;;;;;;4.20;1.10;;;0.60;99.90;;;;;;6204396;28;20707;-77
2021/01/14 10:47:29;;;;;;;1.87;1.20;;;0.60;99.90;;;;;;6206375;28;20215;-78
2021/01/14 10:50:31;;;;;;;4.17;1.20;;;0.50;99.90;;;;;;6221647;28;20244;-78
2021/01/14 10:53:37;;;;;;;2.60;1.13;;;0.50;99.90;;;;;;6208074;28;20569;-79
2021/01/14 10:56:55;;;;;;;1.57;1.07;;;0.60;99.90;;;;;;6207782;28;20208;-79
2021/01/14 11:00:15;;;;;;;2.23;1.20;;;0.60;99.90;;;;;;6224439;28;20300;-79
2021/01/14 11:03:23;;;;;;;1.90;1.13;;;0.70;99.90;;;;;;6225399;28;20225;-79
2021/01/14 11:06:36;;;;;;;1.77;0.93;;;0.60;99.90;;;;;;6210836;28;20207;-79
2021/01/14 11:09:51;;;;;;;3.93;1.23;;;0.60;99.90;;;;;;6209887;28;20681;-80
2021/01/14 11:13:05;;;;;;;3.27;1.40;;;0.60;99.90;;;;;;6209770;28;20197;-79
2021/01/14 11:16:09;;;;;;;5.93;1.00;;;0.60;99.90;;;;;;6211347;28;20200;-80
2021/01/14 11:19:11;;;;;;;1.33;0.90;;;0.60;99.90;;;;;;6222702;28;20203;-79
2021/01/14 11:22:13;;;;;;;2.07;1.27;;;0.60;99.90;;;;;;6234772;28;20581;-80
2021/01/14 11:25:15;;;;;;;1.87;1.10;;;0.50;99.90;;;;;;6232165;28;20220;-80
2021/01/14 11:28:38;;;;;;;3.33;1.43;;;0.50;99.90;;;;;;6215466;28;20219;-80
2021/01/14 11:31:40;;;;;;;3.00;1.20;;;0.40;99.90;;;;;;6230636;28;20224;-81
2021/01/14 11:34:42;;;;;;;2.27;0.97;;;0.40;99.90;;;;;;6231545;28;20462;-81
2021/01/14 11:37:44;;;;;;;2.83;1.13;;;0.30;99.90;;;;;;6230160;28;20211;-81
2021/01/14 11:40:50;;;;;;;2.20;1.10;;;0.20;99.90;;;;;;6231695;28;20688;-80
2021/01/14 11:43:53;;;;;;;1.57;1.20;;;0.10;99.90;;;;;;6232539;28;20677;-81
2021/01/14 11:46:55;;;;;;;3.77;1.20;;;0.10;99.90;;;;;;6216131;28;20731;-80
2021/01/14 11:49:58;;;;;;;2.13;1.33;;;0.10;99.90;;;;;;6248770;28;20212;-81
2021/01/14 11:53:00;;;;;;;2.77;1.37;;;0.20;99.90;;;;;;6232773;28;20211;-81
2021/01/14 11:56:02;;;;;;;4.53;1.10;;;0.30;99.90;;;;;;6233810;28;20437;-81
2021/01/14 11:59:05;;;;;;;2.23;1.20;;;0.30;99.90;;;;;;6234248;28;20235;-81
2021/01/14 12:02:07;;;;;;;1.63;0.90;;;0.40;99.90;;;;;;6232968;28;20200;-81
2021/01/14 12:05:10;;;;;;;1.10;1.00;;;0.40;99.90;;;;;;6235527;28;20437;-81
2021/01/14 12:08:11;;;;;;;2.97;1.60;;;0.40;99.90;;;;;;6235162;28;20578;-81
2021/01/14 12:11:18;;;;;;;2.00;1.27;;;0.50;99.90;;;;;;6236391;28;20234;-81
2021/01/14 12:14:21;;;;;;;4.00;1.50;;;0.50;99.90;;;;;;6236289;28;20215;-81
2021/01/14 12:17:23;;;;;;;2.37;1.37;;;0.50;99.90;;;;;;6234946;28;20204;-81
2021/01/14 12:20:25;;;;;;;4.20;1.40;;;0.60;99.90;;;;;;6233480;28;20227;-81
2021/01/14 12:23:27;;;;;;;1.63;1.20;;;0.70;99.90;;;;;;6227264;28;20284;-81
2021/01/14 12:26:29;;;;;;;1.70;1.20;;;0.80;99.90;;;;;;6209492;28;20233;-81
2021/01/14 12:29:37;;;;;;;3.87;1.40;;;0.80;99.90;;;;;;6212328;28;20212;-81
2021/01/14 12:32:40;;;;;;;3.17;1.77;;;0.70;99.90;;;;;;6212778;28;20224;-81
2021/01/14 12:35:41;;;;;;;2.50;1.43;;;0.70;99.90;;;;;;6213485;28;20220;-81
2021/01/14 12:38:43;;;;;;;1.83;1.47;;;0.80;99.90;;;;;;6213251;28;20593;-81
2021/01/14 12:41:45;;;;;;;1.90;1.50;;;0.80;99.90;;;;;;6213236;28;20212;-81
2021/01/14 12:44:47;;;;;;;2.37;1.60;;;0.80;99.90;;;;;;6210820;28;20212;-81
2021/01/14 12:47:50;;;;;;;1.20;1.10;;;0.90;99.90;;;;;;6196241;28;20531;-81
2021/01/14 12:50:52;;;;;;;1.67;1.40;;;1.00;99.90;;;;;;6239767;28;20228;-81
2021/01/14 12:53:53;;;;;;;2.93;1.20;;;1.20;99.90;;;;;;6238790;28;20277;-81
2021/01/14 12:56:55;;;;;;;1.87;1.30;;;1.30;99.90;;;;;;6234990;28;20215;-81
2021/01/14 12:59:57;;;;;;;1.60;1.50;;;1.40;99.90;;;;;;6228109;28;20238;-81
2021/01/14 13:02:59;;;;;;;1.40;1.23;;;1.50;99.90;;;;;;6230474;28;20204;-81
2021/01/14 13:06:01;;;;;;;1.80;1.30;;;1.50;99.90;;;;;;6234652;28;20207;-81
2021/01/14 13:09:06;;;;;;;1.60;1.20;;;1.50;99.90;;;;;;6232589;28;20211;-81
2021/01/14 13:12:08;;;;;;;1.97;1.47;;;1.50;99.90;;;;;;6234007;28;20236;-81
2021/01/14 13:15:10;;;;;;;1.50;1.40;;;1.40;99.90;;;;;;6234454;28;20212;-81
2021/01/14 13:18:11;;;;;;;11.20;1.50;;;1.40;99.90;;;;;;6233049;28;20238;-81
2021/01/14 13:21:13;;;;;;;2.03;1.33;;;1.40;99.90;;;;;;6232896;28;20228;-81
2021/01/14 13:24:18;;;;;;;1.07;0.97;;;1.50;99.90;;;;;;6210744;28;20255;-81
2021/01/14 13:27:20;;;;;;;2.90;1.30;;;1.50;99.90;;;;;;6211441;28;20274;-81
2021/01/14 13:30:22;;;;;;;1.27;1.00;;;1.60;99.90;;;;;;6210975;28;20227;-81
2021/01/14 13:33:24;;;;;;;2.53;1.30;;;1.60;99.90;;;;;;6211924;28;20205;-81
2021/01/14 13:36:28;;;;;;;1.53;1.00;;;1.80;99.90;;;;;;6211761;28;20284;-81
2021/01/14 13:39:30;;;;;;;1.57;1.07;;;1.90;99.90;;;;;;6231755;28;20682;-81
2021/01/14 13:42:32;;;;;;;2.30;1.43;;;2.00;99.90;;;;;;6216573;28;20208;-81
2021/01/14 13:45:34;;;;;;;1.43;0.90;;;2.00;99.90;;;;;;6234275;28;20215;-81
2021/01/14 13:48:36;;;;;;;1.53;1.00;;;2.00;99.90;;;;;;6232980;28;20212;-83
2021/01/14 13:51:40;;;;;;;1.10;0.77;;;2.00;99.90;;;;;;6216342;28;20243;-82
2021/01/14 13:54:42;;;;;;;1.47;1.20;;;1.90;99.90;;;;;;6228608;28;20215;-81
2021/01/14 13:57:44;;;;;;;2.40;1.20;;;1.80;99.90;;;;;;6213609;28;20219;-82
2021/01/14 14:00:47;;;;;;;1.60;1.10;;;1.60;99.90;;;;;;6212129;28;20200;-82
2021/01/14 14:03:49;;;;;;;1.30;1.20;;;1.50;99.90;;;;;;6207006;28;20299;-82
2021/01/14 14:06:53;;;;;;;1.10;1.00;;;1.50;99.90;;;;;;6204240;28;20231;-82
2021/01/14 14:09:55;;;;;;;1.80;1.20;;;1.40;99.90;;;;;;6203335;28;20197;-82
2021/01/14 14:12:57;;;;;;;1.43;1.20;;;1.30;99.90;;;;;;6214078;28;20686;-82
2021/01/14 14:16:00;;;;;;;1.60;1.33;;;1.30;99.90;;;;;;6211880;28;20197;-82
2021/01/14 14:19:03;;;;;;;1.97;1.37;;;1.20;99.90;;;;;;6218980;28;20209;-82
2021/01/14 14:22:05;;;;;;;1.70;1.30;;;1.20;99.90;;;;;;6219448;28;20219;-81
2021/01/14 14:25:09;;;;;;;2.10;1.37;;;1.20;99.90;;;;;;6233802;28;20227;-82
2021/01/14 14:28:10;;;;;;;1.80;1.37;;;1.20;99.90;;;;;;6226516;28;20227;-81
2021/01/14 14:31:12;;;;;;;4.17;1.37;;;1.20;99.90;;;;;;6226246;28;20220;-81
2021/01/14 14:34:14;;;;;;;1.80;1.40;;;1.30;99.90;;;;;;6243587;28;20323;-81
2021/01/14 14:37:16;;;;;;;2.23;1.07;;;1.30;99.90;;;;;;6227227;28;20200;-81
2021/01/14 14:40:18;;;;;;;1.40;1.30;;;1.40;99.90;;;;;;6210502;28;20299;-81
2021/01/14 14:43:20;;;;;;;1.10;0.90;;;1.40;99.90;;;;;;6226631;28;20203;-81
2021/01/14 14:46:24;;;;;;;1.87;1.30;;;1.30;99.90;;;;;;6226832;28;20204;-81
2021/01/14 14:49:26;;;;;;;1.20;1.10;;;1.20;99.90;;;;;;6228225;28;20212;-81
2021/01/14 14:52:28;;;;;;;1.17;1.10;;;1.10;99.90;;;;;;6226255;28;20308;-81
2021/01/14 14:55:31;;;;;;;1.37;1.27;;;1.10;99.90;;;;;;6226328;28;20688;-81
2021/01/14 14:58:34;;;;;;;1.20;1.10;;;1.00;99.90;;;;;;6226874;28;20253;-81
2021/01/14 15:01:36;;;;;;;1.07;0.97;;;0.90;99.90;;;;;;6226495;28;20673;-81
2021/01/14 15:04:37;;;;;;;1.43;1.17;;;0.90;99.90;;;;;;6227762;28;20273;-81
2021/01/14 15:07:41;;;;;;;1.67;1.40;;;0.80;99.90;;;;;;6225534;28;20226;-81
2021/01/14 15:10:44;;;;;;;1.20;1.10;;;0.80;99.90;;;;;;6226003;28;20248;-81
2021/01/14 15:13:46;;;;;;;1.47;1.10;;;0.70;99.90;;;;;;6225942;28;20203;-81
2021/01/14 15:16:48;;;;;;;1.43;1.10;;;0.70;99.90;;;;;;6226389;28;20204;-81
2021/01/14 15:19:50;;;;;;;1.33;1.00;;;0.70;99.90;;;;;;6224838;28;20231;-81
2021/01/14 15:22:52;;;;;;;1.10;1.00;;;0.60;99.90;;;;;;6213744;28;20240;-81
2021/01/14 15:25:54;;;;;;;1.30;1.20;;;0.60;99.90;;;;;;6200102;28;20232;-81
2021/01/14 15:28:56;;;;;;;1.10;1.00;;;0.60;99.90;;;;;;6200957;28;20235;-81
2021/01/14 15:31:58;;;;;;;1.40;0.93;;;0.60;99.90;;;;;;6184915;28;20705;-82
2021/01/14 15:35:00;;;;;;;1.57;1.00;;;0.60;99.90;;;;;;6201323;28;20213;-82
2021/01/14 15:38:02;;;;;;;1.27;1.03;;;0.60;99.90;;;;;;6200739;28;20213;-81
2021/01/14 15:41:04;;;;;;;2.37;1.40;;;0.60;99.90;;;;;;6202807;28;20228;-81
2021/01/14 15:44:06;;;;;;;2.37;1.23;;;0.70;99.90;;;;;;6200832;28;20235;-81
2021/01/14 15:47:08;;;;;;;1.43;1.17;;;0.70;99.90;;;;;;6216727;28;20211;-81
2021/01/14 15:50:11;;;;;;;2.00;1.53;;;0.70;99.90;;;;;;6209293;28;20298;-81
2021/01/14 15:53:13;;;;;;;1.80;1.40;;;0.70;99.90;;;;;;6225713;28;20199;-82
2021/01/14 15:56:24;;;;;;;1.33;1.13;;;0.70;99.90;;;;;;6225524;28;20283;-81
2021/01/14 15:59:33;;;;;;;1.50;1.33;;;0.70;99.90;;;;;;6225511;28;20204;-81
2021/01/14 16:02:36;;;;;;;3.03;1.70;;;0.70;99.90;;;;;;6225389;28;20204;-81
2021/01/14 16:05:37;;;;;;;1.73;1.23;;;0.70;99.90;;;;;;6225670;28;20228;-81
2021/01/14 16:08:39;;;;;;;2.90;1.60;;;0.70;99.90;;;;;;6225607;28;20203;-81
2021/01/14 16:11:41;;;;;;;2.07;1.60;;;0.70;99.90;;;;;;6225525;28;20938;-81
2021/01/14 16:14:43;;;;;;;1.77;1.43;;;0.60;99.90;;;;;;6225404;28;20648;-81
2021/01/14 16:17:46;;;;;;;3.03;1.93;;;0.60;99.90;;;;;;6224650;28;20214;-81